PST,Max TemperatureF,Mean TemperatureF,Min TemperatureF,Max Dew PointF,MeanDew PointF,Min DewpointF,Max Humidity, Mean Humidity, Min Humidity, Max Sea Level PressureIn, Mean Sea Level PressureIn, Min Sea Level PressureIn, Max VisibilityMiles, Mean VisibilityMiles, Min VisibilityMiles, Max Wind SpeedMPH, Mean Wind SpeedMPH, Max Gust SpeedMPH,PrecipitationIn, CloudCover, Events, WindDirDegrees
2014-1-1,44,36,28,36,32,28,96,88,73,30.47,30.41,30.37,10,9,7,12,3,,0.00,5,,93
2014-1-2,50,36,30,41,34,29,100,92,71,30.39,30.23,29.92,10,5,1,17,2,23,0.00,6,,117
2014-1-3,48,41,32,43,32,26,85,65,48,30.32,30.16,30.00,10,10,10,23,11,31,0.01,1,Rain,306
2014-1-4,42,33,24,29,25,20,92,80,58,30.51,30.45,30.33,10,10,10,7,2,,0.00,0,,107
2014-1-5,41,31,21,27,23,17,92,78,57,30.65,30.57,30.50,10,10,7,4,1,,0.00,0,,144
2014-1-6,36,28,21,26,23,18,89,78,59,30.52,30.40,30.26,10,10,10,6,2,,0.00,1,,102
2014-1-7,39,34,30,33,29,26,96,83,62,30.25,30.17,30.12,10,8,3,6,2,,0.13,8,Rain,62
2014-1-8,37,34,32,35,33,30,100,94,83,30.13,29.95,29.83,6,2,0,9,1,,0.38,7,Fog-Rain,115
2014-1-9,51,40,33,41,37,33,100,89,63,30.07,29.93,29.85,10,7,0,21,4,26,0.03,5,Fog-Rain,98
2014-1-10,53,47,39,42,39,37,93,69,59,30.08,29.98,29.81,10,10,10,23,10,38,0.00,5,,322
2014-1-11,57,46,35,45,39,31,97,76,39,29.87,29.66,29.55,10,8,2,39,14,55,0.25,5,Rain,259
2014-1-12,55,49,43,46,40,34,89,74,65,30.32,30.12,29.91,10,10,9,31,17,43,0.04,5,Rain,299
2014-1-13,52,49,46,45,42,38,86,75,63,30.63,30.50,30.35,10,10,9,22,10,29,0.01,3,Rain,312
2014-1-14,50,43,35,42,38,33,97,84,71,30.69,30.62,30.55,10,10,10,8,4,,0.00,0,,137
2014-1-15,45,39,32,37,35,30,100,92,71,30.57,30.53,30.43,10,6,0,8,2,,0.00,4,Fog,192
2014-1-16,48,37,26,35,31,24,100,88,61,30.62,30.54,30.45,10,7,0,8,2,,0.00,1,Fog,133
2014-1-17,36,31,26,34,30,24,100,93,86,30.46,30.44,30.41,9,4,0,6,0,,0.00,6,Fog,103
2014-1-18,37,36,35,33,31,30,92,84,76,30.46,30.38,30.31,10,9,4,6,2,,0.00,8,,114
2014-1-19,36,35,34,31,29,28,85,81,76,30.49,30.32,30.25,10,10,6,9,3,,0.00,8,,136
2014-1-20,36,35,34,30,29,27,82,77,73,30.61,30.55,30.49,10,10,10,9,6,,0.00,8,,106
2014-1-21,36,34,33,28,27,26,79,74,67,30.55,30.51,30.45,10,10,10,7,4,,0.00,8,,98
2014-1-22,36,34,33,32,29,27,86,82,78,30.58,30.47,30.42,10,9,4,10,3,,0.00,8,,107
2014-1-23,37,36,34,30,29,28,85,78,70,30.71,30.64,30.58,10,10,10,10,7,,0.00,8,,100
2014-1-24,36,34,32,29,27,25,82,74,67,30.73,30.68,30.64,10,10,9,13,8,,0.00,8,,112
2014-1-25,35,32,30,28,26,25,82,74,67,30.64,30.55,30.45,10,10,10,8,4,,0.00,8,,67
2014-1-26,33,32,30,28,26,25,85,79,75,30.43,30.38,30.35,10,10,7,10,4,,0.00,8,,88
2014-1-27,35,32,30,28,27,26,88,80,70,30.51,30.46,30.38,10,10,7,5,3,,0.00,8,,107
2014-1-28,39,36,32,33,29,27,92,78,62,30.47,30.35,30.12,10,9,6,7,1,,0.21,8,Rain,91
2014-1-29,48,40,33,40,34,32,96,89,71,30.09,29.92,29.73,10,6,2,23,3,23,0.19,6,Rain,299
2014-1-30,50,42,33,37,35,31,92,72,54,29.98,29.92,29.88,10,10,10,20,11,25,0.00,1,,306
2014-1-31,51,42,32,37,34,29,89,78,59,30.14,30.06,29.98,10,10,10,20,4,28,0.00,5,,300